sensor_id;sensor_type;location;lat;lon;timestamp;pressure;altitude;pressure_sealevel;temperature;humidity
64189;BME280;50493;50.970;10.082;2023-08-01T00:00:59;97946.91;;;17.69;74.83
64189;BME280;50493;50.970;10.082;2023-08-01T00:03:25;97925.28;;;17.75;71.29
64189;BME280;50493;50.970;10.082;2023-08-01T00:05:51;97921.72;;;17.63;67.45
64189;BME280;50493;50.970;10.082;2023-08-01T00:08:17;97916.28;;;17.53;76.72
64189;BME280;50493;50.970;10.082;2023-08-01T00:10:42;97912.44;;;17.58;76.40
64189;BME280;50493;50.970;10.082;2023-08-01T00:13:08;97900.69;;;17.86;74.29
64189;BME280;50493;50.970;10.082;2023-08-01T00:15:34;97889.84;;;17.53;72.16
64189;BME280;50493;50.970;10.082;2023-08-01T00:17:59;97896.56;;;17.46;68.82
64189;BME280;50493;50.970;10.082;2023-08-01T00:20:25;97884.56;;;17.53;70.38
64189;BME280;50493;50.970;10.082;2023-08-01T00:22:52;97885.72;;;17.38;69.00
64189;BME280;50493;50.970;10.082;2023-08-01T00:25:17;97881.03;;;17.42;69.16
64189;BME280;50493;50.970;10.082;2023-08-01T00:27:43;97866.28;;;17.39;70.63
64189;BME280;50493;50.970;10.082;2023-08-01T00:30:09;97859.69;;;17.45;68.60
64189;BME280;50493;50.970;10.082;2023-08-01T00:32:34;97852.72;;;17.44;71.92
64189;BME280;50493;50.970;10.082;2023-08-01T00:35:00;97842.84;;;17.34;70.59
64189;BME280;50493;50.970;10.082;2023-08-01T00:37:25;97845.72;;;17.07;70.05
64189;BME280;50493;50.970;10.082;2023-08-01T00:39:52;97843.69;;;17.35;72.64
64189;BME280;50493;50.970;10.082;2023-08-01T00:42:17;97826.44;;;17.42;72.65
64189;BME280;50493;50.970;10.082;2023-08-01T00:44:43;97832.03;;;17.38;72.47
64189;BME280;50493;50.970;10.082;2023-08-01T00:47:08;97823.53;;;17.45;72.92
64189;BME280;50493;50.970;10.082;2023-08-01T00:49:34;97820.88;;;17.34;68.75
64189;BME280;50493;50.970;10.082;2023-08-01T00:52:00;97816.13;;;17.50;71.68
64189;BME280;50493;50.970;10.082;2023-08-01T00:54:25;97815.38;;;17.48;68.73
64189;BME280;50493;50.970;10.082;2023-08-01T00:56:53;97810.38;;;17.57;69.57
64189;BME280;50493;50.970;10.082;2023-08-01T00:59:18;97802.72;;;17.65;73.25
64189;BME280;50493;50.970;10.082;2023-08-01T01:01:44;97791.41;;;17.63;70.45
64189;BME280;50493;50.970;10.082;2023-08-01T01:04:09;97790.25;;;17.31;72.82
64189;BME280;50493;50.970;10.082;2023-08-01T01:06:40;97794.47;;;17.34;72.70
64189;BME280;50493;50.970;10.082;2023-08-01T01:09:14;97778.28;;;17.03;73.14
64189;BME280;50493;50.970;10.082;2023-08-01T01:11:40;97760.97;;;16.99;71.66
64189;BME280;50493;50.970;10.082;2023-08-01T01:14:07;97743.03;;;17.15;71.45
64189;BME280;50493;50.970;10.082;2023-08-01T01:16:32;97732.22;;;17.18;73.40
64189;BME280;50493;50.970;10.082;2023-08-01T01:18:58;97704.00;;;17.08;71.35
64189;BME280;50493;50.970;10.082;2023-08-01T01:21:25;97696.72;;;17.23;71.25
64189;BME280;50493;50.970;10.082;2023-08-01T01:23:52;97688.84;;;17.45;68.91
64189;BME280;50493;50.970;10.082;2023-08-01T01:26:18;97678.22;;;17.23;72.37
64189;BME280;50493;50.970;10.082;2023-08-01T01:28:46;97660.00;;;17.31;74.42
64189;BME280;50493;50.970;10.082;2023-08-01T01:31:13;97669.25;;;17.25;73.68
64189;BME280;50493;50.970;10.082;2023-08-01T01:33:39;97688.31;;;17.17;67.44
64189;BME280;50493;50.970;10.082;2023-08-01T01:36:04;97722.16;;;17.12;67.33
64189;BME280;50493;50.970;10.082;2023-08-01T01:38:31;97748.28;;;17.04;68.09
64189;BME280;50493;50.970;10.082;2023-08-01T01:40:56;97752.59;;;17.05;67.93
64189;BME280;50493;50.970;10.082;2023-08-01T01:43:22;97760.78;;;17.13;72.90
64189;BME280;50493;50.970;10.082;2023-08-01T01:45:47;97756.56;;;17.46;68.43
64189;BME280;50493;50.970;10.082;2023-08-01T01:48:13;97760.44;;;17.65;70.30
64189;BME280;50493;50.970;10.082;2023-08-01T01:50:38;97744.09;;;17.60;70.54
64189;BME280;50493;50.970;10.082;2023-08-01T01:53:03;97744.91;;;17.49;67.64
64189;BME280;50493;50.970;10.082;2023-08-01T01:55:30;97739.06;;;17.68;70.81
64189;BME280;50493;50.970;10.082;2023-08-01T01:57:56;97735.41;;;17.35;67.28
64189;BME280;50493;50.970;10.082;2023-08-01T02:00:21;97736.00;;;17.27;66.26
64189;BME280;50493;50.970;10.082;2023-08-01T02:02:47;97726.13;;;17.76;67.61
64189;BME280;50493;50.970;10.082;2023-08-01T02:05:12;97714.09;;;17.14;66.42
64189;BME280;50493;50.970;10.082;2023-08-01T02:07:37;97708.59;;;17.75;71.85
64189;BME280;50493;50.970;10.082;2023-08-01T02:10:03;97712.63;;;17.68;68.86
64189;BME280;50493;50.970;10.082;2023-08-01T02:12:30;97700.41;;;17.90;70.05
64189;BME280;50493;50.970;10.082;2023-08-01T02:14:57;97704.72;;;17.79;68.45
64189;BME280;50493;50.970;10.082;2023-08-01T02:17:22;97693.56;;;17.98;72.68
64189;BME280;50493;50.970;10.082;2023-08-01T02:19:47;97704.00;;;18.11;72.04
64189;BME280;50493;50.970;10.082;2023-08-01T02:22:13;97691.53;;;17.91;66.72
64189;BME280;50493;50.970;10.082;2023-08-01T02:24:38;97689.56;;;18.15;72.12
64189;BME280;50493;50.970;10.082;2023-08-01T02:27:04;97678.25;;;18.25;71.23
64189;BME280;50493;50.970;10.082;2023-08-01T02:29:31;97685.63;;;18.10;71.84
64189;BME280;50493;50.970;10.082;2023-08-01T02:31:56;97675.53;;;18.03;68.25
64189;BME280;50493;50.970;10.082;2023-08-01T02:34:22;97666.03;;;18.12;69.30
64189;BME280;50493;50.970;10.082;2023-08-01T02:36:47;97675.88;;;18.10;71.55
64189;BME280;50493;50.970;10.082;2023-08-01T02:39:12;97659.59;;;17.82;67.83
64189;BME280;50493;50.970;10.082;2023-08-01T02:41:38;97664.84;;;17.94;72.72
64189;BME280;50493;50.970;10.082;2023-08-01T02:44:04;97664.50;;;17.87;70.82
64189;BME280;50493;50.970;10.082;2023-08-01T02:46:30;97650.41;;;17.52;68.17
64189;BME280;50493;50.970;10.082;2023-08-01T02:48:56;97646.09;;;17.63;74.80
64189;BME280;50493;50.970;10.082;2023-08-01T02:51:21;97637.94;;;17.55;69.39
64189;BME280;50493;50.970;10.082;2023-08-01T02:53:47;97637.47;;;17.83;74.28
64189;BME280;50493;50.970;10.082;2023-08-01T02:56:12;97632.69;;;17.77;72.05
64189;BME280;50493;50.970;10.082;2023-08-01T02:58:38;97632.91;;;17.51;69.42
64189;BME280;50493;50.970;10.082;2023-08-01T03:01:06;97623.78;;;17.56;70.64
64189;BME280;50493;50.970;10.082;2023-08-01T03:03:33;97613.69;;;17.61;66.95
64189;BME280;50493;50.970;10.082;2023-08-01T03:06:01;97614.53;;;17.50;68.26
64189;BME280;50493;50.970;10.082;2023-08-01T03:08:26;97602.16;;;17.84;74.41
64189;BME280;50493;50.970;10.082;2023-08-01T03:10:52;97607.09;;;17.44;69.37
64189;BME280;50493;50.970;10.082;2023-08-01T03:13:18;97605.28;;;17.33;73.25
64189;BME280;50493;50.970;10.082;2023-08-01T03:15:43;97602.50;;;17.57;69.63
64189;BME280;50493;50.970;10.082;2023-08-01T03:18:08;97591.34;;;17.76;73.64
64189;BME280;50493;50.970;10.082;2023-08-01T03:20:35;97591.81;;;17.36;68.80
64189;BME280;50493;50.970;10.082;2023-08-01T03:23:01;97598.44;;;17.53;70.82
64189;BME280;50493;50.970;10.082;2023-08-01T03:25:27;97591.84;;;17.81;68.13
64189;BME280;50493;50.970;10.082;2023-08-01T03:27:52;97592.78;;;17.80;71.61
64189;BME280;50493;50.970;10.082;2023-08-01T03:30:19;97597.72;;;17.40;66.80
64189;BME280;50493;50.970;10.082;2023-08-01T03:32:45;97593.25;;;17.40;67.32
64189;BME280;50493;50.970;10.082;2023-08-01T03:35:11;97590.97;;;17.81;70.92
64189;BME280;50493;50.970;10.082;2023-08-01T03:37:38;97597.38;;;17.78;71.80
64189;BME280;50493;50.970;10.082;2023-08-01T03:40:04;97597.09;;;17.59;70.93
64189;BME280;50493;50.970;10.082;2023-08-01T03:42:29;97593.25;;;17.85;72.52
64189;BME280;50493;50.970;10.082;2023-08-01T03:44:55;97574.97;;;17.94;75.05
64189;BME280;50493;50.970;10.082;2023-08-01T03:47:20;97565.28;;;17.38;75.08
64189;BME280;50493;50.970;10.082;2023-08-01T03:49:45;97570.94;;;17.33;74.75
64189;BME280;50493;50.970;10.082;2023-08-01T03:52:11;97576.22;;;17.44;72.82
64189;BME280;50493;50.970;10.082;2023-08-01T03:54:37;97570.44;;;17.62;73.68
64189;BME280;50493;50.970;10.082;2023-08-01T03:57:04;97579.25;;;17.28;74.46
64189;BME280;50493;50.970;10.082;2023-08-01T03:59:39;97569.13;;;17.56;73.35
64189;BME280;50493;50.970;10.082;2023-08-01T04:02:10;97570.94;;;17.78;73.07
64189;BME280;50493;50.970;10.082;2023-08-01T04:04:36;97576.50;;;16.72;68.59
64189;BME280;50493;50.970;10.082;2023-08-01T04:07:01;97582.72;;;16.59;74.58
64189;BME280;50493;50.970;10.082;2023-08-01T04:09:27;97566.94;;;16.82;76.85
64189;BME280;50493;50.970;10.082;2023-08-01T04:11:53;97560.56;;;16.73;80.73
64189;BME280;50493;50.970;10.082;2023-08-01T04:14:19;97580.16;;;16.22;71.12
64189;BME280;50493;50.970;10.082;2023-08-01T04:16:45;97583.53;;;16.24;75.53
64189;BME280;50493;50.970;10.082;2023-08-01T04:19:10;97563.47;;;16.93;83.67
64189;BME280;50493;50.970;10.082;2023-08-01T04:21:36;97552.13;;;16.68;81.88
64189;BME280;50493;50.970;10.082;2023-08-01T04:24:01;97579.94;;;16.01;72.77
64189;BME280;50493;50.970;10.082;2023-08-01T04:26:26;97580.03;;;15.99;76.05
64189;BME280;50493;50.970;10.082;2023-08-01T04:28:53;97581.84;;;16.59;80.52
64189;BME280;50493;50.970;10.082;2023-08-01T04:31:19;97552.72;;;17.07;81.38
64189;BME280;50493;50.970;10.082;2023-08-01T04:33:44;97544.69;;;16.62;78.85
64189;BME280;50493;50.970;10.082;2023-08-01T04:36:10;97528.47;;;17.13;82.28
64189;BME280;50493;50.970;10.082;2023-08-01T04:38:35;97525.44;;;17.29;83.64
64189;BME280;50493;50.970;10.082;2023-08-01T04:41:01;97537.56;;;17.09;76.37
64189;BME280;50493;50.970;10.082;2023-08-01T04:43:28;97533.25;;;17.42;80.24
64189;BME280;50493;50.970;10.082;2023-08-01T04:45:55;97527.94;;;17.53;77.19
64189;BME280;50493;50.970;10.082;2023-08-01T04:48:20;97533.97;;;17.44;72.26
64189;BME280;50493;50.970;10.082;2023-08-01T04:50:45;97519.78;;;17.57;74.97
64189;BME280;50493;50.970;10.082;2023-08-01T04:53:12;97509.22;;;17.57;74.79
64189;BME280;50493;50.970;10.082;2023-08-01T04:55:37;97507.28;;;17.70;77.50
64189;BME280;50493;50.970;10.082;2023-08-01T04:58:02;97495.78;;;17.48;76.25
64189;BME280;50493;50.970;10.082;2023-08-01T05:00:28;97489.97;;;17.66;74.11
64189;BME280;50493;50.970;10.082;2023-08-01T05:02:55;97483.06;;;17.42;68.16
64189;BME280;50493;50.970;10.082;2023-08-01T05:05:20;97479.91;;;17.71;76.08
64189;BME280;50493;50.970;10.082;2023-08-01T05:07:45;97489.91;;;17.45;68.53
64189;BME280;50493;50.970;10.082;2023-08-01T05:10:11;97487.09;;;17.58;73.42
64189;BME280;50493;50.970;10.082;2023-08-01T05:12:36;97484.78;;;16.98;77.56
64189;BME280;50493;50.970;10.082;2023-08-01T05:15:02;97476.38;;;16.70;74.44
64189;BME280;50493;50.970;10.082;2023-08-01T05:17:28;97459.56;;;16.48;77.71
64189;BME280;50493;50.970;10.082;2023-08-01T05:19:55;97445.41;;;16.49;79.49
64189;BME280;50493;50.970;10.082;2023-08-01T05:22:20;97453.56;;;16.46;71.34
64189;BME280;50493;50.970;10.082;2023-08-01T05:24:46;97468.94;;;17.09;80.54
64189;BME280;50493;50.970;10.082;2023-08-01T05:27:11;97463.19;;;17.15;76.17
64189;BME280;50493;50.970;10.082;2023-08-01T05:29:37;97450.00;;;16.81;78.62
64189;BME280;50493;50.970;10.082;2023-08-01T05:32:02;97457.41;;;16.76;70.13
64189;BME280;50493;50.970;10.082;2023-08-01T05:34:28;97460.06;;;16.65;68.15
64189;BME280;50493;50.970;10.082;2023-08-01T05:36:55;97477.41;;;16.56;70.06
64189;BME280;50493;50.970;10.082;2023-08-01T05:39:20;97485.13;;;16.24;69.13
64189;BME280;50493;50.970;10.082;2023-08-01T05:41:45;97486.47;;;16.88;76.27
64189;BME280;50493;50.970;10.082;2023-08-01T05:44:11;97479.00;;;17.38;76.66
64189;BME280;50493;50.970;10.082;2023-08-01T05:46:36;97484.28;;;17.27;73.87
64189;BME280;50493;50.970;10.082;2023-08-01T05:49:02;97492.34;;;17.36;74.75
64189;BME280;50493;50.970;10.082;2023-08-01T05:51:27;97492.44;;;17.46;76.05
64189;BME280;50493;50.970;10.082;2023-08-01T05:53:54;97487.41;;;17.09;72.45
64189;BME280;50493;50.970;10.082;2023-08-01T05:56:19;97486.88;;;17.49;76.13
64189;BME280;50493;50.970;10.082;2023-08-01T05:58:45;97481.63;;;17.27;73.08
64189;BME280;50493;50.970;10.082;2023-08-01T06:01:10;97482.59;;;17.37;78.30
64189;BME280;50493;50.970;10.082;2023-08-01T06:03:37;97477.13;;;17.17;74.69
64189;BME280;50493;50.970;10.082;2023-08-01T06:06:02;97474.56;;;17.16;73.71
64189;BME280;50493;50.970;10.082;2023-08-01T06:08:28;97474.47;;;17.17;74.87
64189;BME280;50493;50.970;10.082;2023-08-01T06:10:55;97478.41;;;17.34;76.24
64189;BME280;50493;50.970;10.082;2023-08-01T06:13:20;97482.81;;;17.57;76.63
64189;BME280;50493;50.970;10.082;2023-08-01T06:15:45;97472.97;;;17.47;75.77
64189;BME280;50493;50.970;10.082;2023-08-01T06:18:11;97478.28;;;17.36;67.96
64189;BME280;50493;50.970;10.082;2023-08-01T06:20:37;97472.41;;;17.21;67.87
64189;BME280;50493;50.970;10.082;2023-08-01T06:23:03;97458.44;;;17.42;75.48
64189;BME280;50493;50.970;10.082;2023-08-01T06:25:28;97471.06;;;16.59;67.71
64189;BME280;50493;50.970;10.082;2023-08-01T06:27:55;97484.47;;;16.44;69.16
64189;BME280;50493;50.970;10.082;2023-08-01T06:30:20;97487.38;;;16.52;68.70
64189;BME280;50493;50.970;10.082;2023-08-01T06:32:46;97505.13;;;16.15;69.66
64189;BME280;50493;50.970;10.082;2023-08-01T06:35:11;97496.25;;;16.51;78.04
64189;BME280;50493;50.970;10.082;2023-08-01T06:37:37;97491.72;;;17.33;77.40
64189;BME280;50493;50.970;10.082;2023-08-01T06:40:03;97493.31;;;17.13;76.23
64189;BME280;50493;50.970;10.082;2023-08-01T06:42:29;97486.81;;;16.94;71.21
64189;BME280;50493;50.970;10.082;2023-08-01T06:44:56;97508.28;;;17.01;71.58
64189;BME280;50493;50.970;10.082;2023-08-01T06:47:21;97515.28;;;17.13;70.78
64189;BME280;50493;50.970;10.082;2023-08-01T06:49:47;97511.78;;;17.01;67.43
64189;BME280;50493;50.970;10.082;2023-08-01T06:52:12;97501.34;;;17.34;72.17
64189;BME280;50493;50.970;10.082;2023-08-01T06:54:38;97502.03;;;17.47;76.09
64189;BME280;50493;50.970;10.082;2023-08-01T06:57:04;97507.53;;;17.78;75.49
64189;BME280;50493;50.970;10.082;2023-08-01T06:59:29;97516.22;;;18.23;74.71
64189;BME280;50493;50.970;10.082;2023-08-01T07:01:56;97526.97;;;18.42;75.68
64189;BME280;50493;50.970;10.082;2023-08-01T07:04:21;97528.47;;;18.24;68.59
64189;BME280;50493;50.970;10.082;2023-08-01T07:06:47;97524.56;;;17.63;65.58
64189;BME280;50493;50.970;10.082;2023-08-01T07:09:12;97524.47;;;17.76;68.85
64189;BME280;50493;50.970;10.082;2023-08-01T07:11:38;97522.72;;;17.86;69.34
64189;BME280;50493;50.970;10.082;2023-08-01T07:14:03;97518.31;;;18.08;73.08
64189;BME280;50493;50.970;10.082;2023-08-01T07:16:28;97522.75;;;17.63;75.20
64189;BME280;50493;50.970;10.082;2023-08-01T07:18:56;97525.09;;;17.23;71.86
64189;BME280;50493;50.970;10.082;2023-08-01T07:21:21;97538.25;;;17.79;74.71
64189;BME280;50493;50.970;10.082;2023-08-01T07:23:46;97529.88;;;17.40;71.75
64189;BME280;50493;50.970;10.082;2023-08-01T07:26:13;97542.31;;;17.83;68.59
64189;BME280;50493;50.970;10.082;2023-08-01T07:28:39;97534.38;;;17.95;75.08
64189;BME280;50493;50.970;10.082;2023-08-01T07:31:06;97546.78;;;18.15;71.18
64189;BME280;50493;50.970;10.082;2023-08-01T07:33:32;97539.72;;;18.37;67.28
64189;BME280;50493;50.970;10.082;2023-08-01T07:35:59;97539.78;;;18.26;66.40
64189;BME280;50493;50.970;10.082;2023-08-01T07:38:25;97538.41;;;18.64;72.90
64189;BME280;50493;50.970;10.082;2023-08-01T07:40:52;97537.81;;;18.81;74.71
64189;BME280;50493;50.970;10.082;2023-08-01T07:43:18;97541.78;;;18.97;74.69
64189;BME280;50493;50.970;10.082;2023-08-01T07:45:44;97536.91;;;19.23;71.80
64189;BME280;50493;50.970;10.082;2023-08-01T07:48:09;97544.66;;;19.15;70.59
64189;BME280;50493;50.970;10.082;2023-08-01T07:50:35;97544.78;;;18.82;62.76
64189;BME280;50493;50.970;10.082;2023-08-01T07:53:01;97550.63;;;19.07;71.97
64189;BME280;50493;50.970;10.082;2023-08-01T07:55:27;97553.56;;;18.62;63.66
64189;BME280;50493;50.970;10.082;2023-08-01T07:57:52;97559.72;;;18.62;72.02
64189;BME280;50493;50.970;10.082;2023-08-01T08:00:18;97565.44;;;18.02;64.30
64189;BME280;50493;50.970;10.082;2023-08-01T08:02:44;97569.25;;;17.55;66.33
64189;BME280;50493;50.970;10.082;2023-08-01T08:05:10;97576.72;;;17.61;66.60
64189;BME280;50493;50.970;10.082;2023-08-01T08:07:36;97578.53;;;16.79;68.85
64189;BME280;50493;50.970;10.082;2023-08-01T08:10:03;97584.00;;;16.53;70.48
64189;BME280;50493;50.970;10.082;2023-08-01T08:12:29;97583.69;;;16.34;71.29
64189;BME280;50493;50.970;10.082;2023-08-01T08:14:54;97588.34;;;16.30;71.56
64189;BME280;50493;50.970;10.082;2023-08-01T08:17:20;97589.94;;;16.44;73.10
64189;BME280;50493;50.970;10.082;2023-08-01T08:19:46;97586.16;;;16.48;70.70
64189;BME280;50493;50.970;10.082;2023-08-01T08:22:12;97583.22;;;16.40;71.43
64189;BME280;50493;50.970;10.082;2023-08-01T08:24:37;97599.66;;;16.44;73.08
64189;BME280;50493;50.970;10.082;2023-08-01T08:27:05;97604.78;;;16.34;71.31
64189;BME280;50493;50.970;10.082;2023-08-01T08:29:31;97615.78;;;16.28;71.15
64189;BME280;50493;50.970;10.082;2023-08-01T08:31:58;97624.47;;;16.17;72.23
64189;BME280;50493;50.970;10.082;2023-08-01T08:34:24;97621.44;;;16.34;72.01
64189;BME280;50493;50.970;10.082;2023-08-01T08:36:49;97628.56;;;16.45;71.38
64189;BME280;50493;50.970;10.082;2023-08-01T08:39:16;97631.44;;;16.42;71.22
64189;BME280;50493;50.970;10.082;2023-08-01T08:41:45;97646.59;;;16.14;71.90
64189;BME280;50493;50.970;10.082;2023-08-01T08:44:13;97650.28;;;16.25;71.71
64189;BME280;50493;50.970;10.082;2023-08-01T08:46:42;97654.31;;;16.17;71.89
64189;BME280;50493;50.970;10.082;2023-08-01T08:49:08;97645.31;;;16.44;71.41
64189;BME280;50493;50.970;10.082;2023-08-01T08:51:36;97657.84;;;16.53;71.26
64189;BME280;50493;50.970;10.082;2023-08-01T08:54:02;97659.56;;;16.66;69.68
64189;BME280;50493;50.970;10.082;2023-08-01T08:56:29;97669.53;;;16.38;71.01
64189;BME280;50493;50.970;10.082;2023-08-01T08:58:56;97662.81;;;16.69;70.60
64189;BME280;50493;50.970;10.082;2023-08-01T09:01:23;97659.13;;;16.24;71.83
64189;BME280;50493;50.970;10.082;2023-08-01T09:03:49;97659.75;;;16.51;69.98
64189;BME280;50493;50.970;10.082;2023-08-01T09:06:15;97652.91;;;16.25;71.49
64189;BME280;50493;50.970;10.082;2023-08-01T09:08:47;97654.25;;;16.55;71.82
64189;BME280;50493;50.970;10.082;2023-08-01T09:11:15;97655.09;;;16.55;70.11
64189;BME280;50493;50.970;10.082;2023-08-01T09:13:41;97660.06;;;16.71;70.48
64189;BME280;50493;50.970;10.082;2023-08-01T09:16:06;97657.94;;;16.76;69.38
64189;BME280;50493;50.970;10.082;2023-08-01T09:18:34;97666.59;;;16.78;69.07
64189;BME280;50493;50.970;10.082;2023-08-01T09:21:00;97672.31;;;16.72;69.29
64189;BME280;50493;50.970;10.082;2023-08-01T09:23:29;97678.38;;;16.85;69.13
64189;BME280;50493;50.970;10.082;2023-08-01T09:25:56;97675.56;;;17.00;68.14
64189;BME280;50493;50.970;10.082;2023-08-01T09:28:22;97680.50;;;17.16;67.95
64189;BME280;50493;50.970;10.082;2023-08-01T09:30:49;97678.97;;;17.25;67.09
64189;BME280;50493;50.970;10.082;2023-08-01T09:33:15;97673.44;;;17.28;67.14
64189;BME280;50493;50.970;10.082;2023-08-01T09:35:42;97683.09;;;17.74;65.44
64189;BME280;50493;50.970;10.082;2023-08-01T09:38:12;97685.28;;;17.80;67.56
64189;BME280;50493;50.970;10.082;2023-08-01T09:40:39;97677.81;;;18.08;65.54
64189;BME280;50493;50.970;10.082;2023-08-01T09:43:05;97678.13;;;18.70;63.26
64189;BME280;50493;50.970;10.082;2023-08-01T09:45:31;97676.75;;;18.43;62.48
64189;BME280;50493;50.970;10.082;2023-08-01T09:47:56;97667.00;;;18.87;60.75
64189;BME280;50493;50.970;10.082;2023-08-01T09:50:23;97663.41;;;19.62;59.16
64189;BME280;50493;50.970;10.082;2023-08-01T09:52:50;97655.63;;;19.70;59.45
64189;BME280;50493;50.970;10.082;2023-08-01T09:55:20;97656.09;;;19.44;58.61
64189;BME280;50493;50.970;10.082;2023-08-01T09:57:51;97656.72;;;18.73;61.21
64189;BME280;50493;50.970;10.082;2023-08-01T10:00:18;97655.06;;;19.14;60.72
64189;BME280;50493;50.970;10.082;2023-08-01T10:02:43;97658.56;;;18.94;60.78
64189;BME280;50493;50.970;10.082;2023-08-01T10:05:10;97662.50;;;19.20;59.24
64189;BME280;50493;50.970;10.082;2023-08-01T10:07:38;97665.72;;;19.76;56.60
64189;BME280;50493;50.970;10.082;2023-08-01T10:10:08;97670.72;;;19.69;58.55
64189;BME280;50493;50.970;10.082;2023-08-01T10:12:35;97666.66;;;18.60;62.33
64189;BME280;50493;50.970;10.082;2023-08-01T10:15:03;97670.94;;;18.72;61.75
64189;BME280;50493;50.970;10.082;2023-08-01T10:17:29;97674.06;;;18.66;62.00
64189;BME280;50493;50.970;10.082;2023-08-01T10:19:55;97664.56;;;18.19;64.56
64189;BME280;50493;50.970;10.082;2023-08-01T10:22:21;97674.34;;;17.85;65.25
64189;BME280;50493;50.970;10.082;2023-08-01T10:24:48;97668.59;;;17.80;65.57
64189;BME280;50493;50.970;10.082;2023-08-01T10:27:19;97671.13;;;17.81;64.88
64189;BME280;50493;50.970;10.082;2023-08-01T10:29:45;97668.44;;;17.93;64.39
64189;BME280;50493;50.970;10.082;2023-08-01T10:32:11;97667.38;;;17.95;64.59
64189;BME280;50493;50.970;10.082;2023-08-01T10:34:37;97658.88;;;18.24;63.36
64189;BME280;50493;50.970;10.082;2023-08-01T10:37:03;97655.56;;;19.08;57.74
64189;BME280;50493;50.970;10.082;2023-08-01T10:39:28;97647.53;;;19.62;58.72
64189;BME280;50493;50.970;10.082;2023-08-01T10:41:57;97647.09;;;19.14;60.36
64189;BME280;50493;50.970;10.082;2023-08-01T10:44:25;97651.59;;;20.16;57.58
64189;BME280;50493;50.970;10.082;2023-08-01T10:46:52;97651.19;;;19.18;61.36
64189;BME280;50493;50.970;10.082;2023-08-01T10:49:19;97663.81;;;19.88;56.62
64189;BME280;50493;50.970;10.082;2023-08-01T10:51:45;97657.38;;;19.29;60.20
64189;BME280;50493;50.970;10.082;2023-08-01T10:54:21;97654.69;;;19.71;58.63
64189;BME280;50493;50.970;10.082;2023-08-01T10:56:47;97644.09;;;20.21;57.18
64189;BME280;50493;50.970;10.082;2023-08-01T10:59:13;97648.31;;;20.44;55.29
64189;BME280;50493;50.970;10.082;2023-08-01T11:01:45;97669.69;;;20.42;57.07
64189;BME280;50493;50.970;10.082;2023-08-01T11:04:15;97681.28;;;20.31;58.42
64189;BME280;50493;50.970;10.082;2023-08-01T11:06:44;97676.53;;;19.94;59.12
64189;BME280;50493;50.970;10.082;2023-08-01T11:09:18;97667.00;;;20.23;57.51
64189;BME280;50493;50.970;10.082;2023-08-01T11:11:45;97674.13;;;20.22;58.21
64189;BME280;50493;50.970;10.082;2023-08-01T11:14:11;97678.53;;;19.71;60.76
64189;BME280;50493;50.970;10.082;2023-08-01T11:16:38;97686.84;;;19.14;61.85
64189;BME280;50493;50.970;10.082;2023-08-01T11:19:06;97695.63;;;18.94;63.08
64189;BME280;50493;50.970;10.082;2023-08-01T11:21:31;97700.16;;;19.03;63.08
64189;BME280;50493;50.970;10.082;2023-08-01T11:24:05;97692.69;;;18.97;63.72
64189;BME280;50493;50.970;10.082;2023-08-01T11:26:32;97682.13;;;18.97;60.29
64189;BME280;50493;50.970;10.082;2023-08-01T11:29:01;97679.81;;;19.25;58.17
64189;BME280;50493;50.970;10.082;2023-08-01T11:31:27;97676.06;;;19.27;53.92
64189;BME280;50493;50.970;10.082;2023-08-01T11:33:56;97670.94;;;19.14;53.60
64189;BME280;50493;50.970;10.082;2023-08-01T11:36:25;97671.06;;;19.34;53.43
64189;BME280;50493;50.970;10.082;2023-08-01T11:38:51;97670.06;;;19.46;53.24
64189;BME280;50493;50.970;10.082;2023-08-01T11:41:17;97669.06;;;20.19;52.37
64189;BME280;50493;50.970;10.082;2023-08-01T11:43:43;97667.81;;;19.82;52.58
64189;BME280;50493;50.970;10.082;2023-08-01T11:46:09;97676.97;;;20.09;51.46
64189;BME280;50493;50.970;10.082;2023-08-01T11:48:35;97666.72;;;20.26;52.86
64189;BME280;50493;50.970;10.082;2023-08-01T11:51:01;97679.50;;;21.00;50.87
64189;BME280;50493;50.970;10.082;2023-08-01T11:53:29;97678.09;;;21.16;52.74
64189;BME280;50493;50.970;10.082;2023-08-01T11:55:55;97686.03;;;20.86;54.38
64189;BME280;50493;50.970;10.082;2023-08-01T11:58:28;97690.53;;;21.15;54.08
64189;BME280;50493;50.970;10.082;2023-08-01T12:01:01;97688.41;;;20.70;56.21
64189;BME280;50493;50.970;10.082;2023-08-01T12:03:27;97694.16;;;20.95;55.25
64189;BME280;50493;50.970;10.082;2023-08-01T12:06:02;97701.16;;;20.86;56.56
64189;BME280;50493;50.970;10.082;2023-08-01T12:08:31;97693.16;;;21.35;50.78
64189;BME280;50493;50.970;10.082;2023-08-01T12:10:57;97685.28;;;21.63;52.98
64189;BME280;50493;50.970;10.082;2023-08-01T12:13:24;97684.38;;;21.72;43.37
64189;BME280;50493;50.970;10.082;2023-08-01T12:15:51;97696.88;;;21.62;53.85
64189;BME280;50493;50.970;10.082;2023-08-01T12:18:21;97711.78;;;20.96;57.00
64189;BME280;50493;50.970;10.082;2023-08-01T12:20:46;97712.50;;;20.98;56.69
64189;BME280;50493;50.970;10.082;2023-08-01T12:23:12;97709.25;;;20.84;56.60
64189;BME280;50493;50.970;10.082;2023-08-01T12:25:39;97719.03;;;20.84;57.28
64189;BME280;50493;50.970;10.082;2023-08-01T12:28:04;97721.69;;;21.23;52.52
64189;BME280;50493;50.970;10.082;2023-08-01T12:30:30;97715.25;;;21.45;54.32
64189;BME280;50493;50.970;10.082;2023-08-01T12:32:55;97716.44;;;21.70;53.03
64189;BME280;50493;50.970;10.082;2023-08-01T12:35:21;97721.22;;;21.67;53.14
64189;BME280;50493;50.970;10.082;2023-08-01T12:37:46;97742.53;;;21.37;55.02
64189;BME280;50493;50.970;10.082;2023-08-01T12:40:11;97756.66;;;20.99;54.31
64189;BME280;50493;50.970;10.082;2023-08-01T12:42:38;97758.22;;;21.21;55.80
64189;BME280;50493;50.970;10.082;2023-08-01T12:45:04;97760.84;;;21.31;52.99